Etusivu
METAR-TAF:

METAR-TAF

Lentoasemat :

Cedar City, Utah, Yhdysvallat

Leveyspiiri: 37-42-24N, Pituuspiiri: 113-05-48W, korkeus merenpinnasta: 1715 m

Tämänhetkinen sää

Tämä raportti tehtiin 37 minuuttia sitten, kello 05.53 UTC
tyyntä
Lämpötila -1°C
Kosteus 86%
Ilmanpaine 1022 hPa
Näkyvyys: 16.1 km
selkeää

METAR: KCDC 260553Z AUTO 00000KT 10SM CLR M01/M03 A3018 RMK AO2 SLP220 T10111033 10100 21011 51003

Aika: 23:30 (06:30 UTC)

Sääennuste

Tämä raportti tehtiin 46 minuuttia sitten, kello 05.44 UTC
Ennuste voimassa 26. päivästä klo 06 UTC - 27. päivään klo 06 UTC
Tuuli 5 kn eri suunnista
Näkyvyys: 10 km
Hajanaisia pilviä 8000 ft:n korkeudessa
Hajanaisia pilviä 15000 ft:n korkeudessa
From 26. päivästä klo 1800 UTC
Tuuli 8 kn lounaasta
Näkyvyys: 10 km
Hajanaisia pilviä 8000 ft:n korkeudessa
Hajonneita pilviä 15000 ft:n korkeudessa

TAF: KCDC 260544Z 2606/2706 VRB05KT P6SM SCT080 SCT150 FM261800 22008KT P6SM SCT080 BKN150

Säähavainnot ja -ennusteet yli 4000 lentoasemalta (METAR- ja TAF-raportit).

Käytössä olevat sääasemat on merkitty karttaan keltaisilla ja punaisilla pisteillä.

Aseta hiiri pisteen päälle nähdäksesi sääaseman nimen.

Klikkaa sitten nähdäksesi säähavainnot ja -ennusteet.

Kartan vaihtaminen: klikkaa mustalla rastilla varustettuja vihreitä pisteitä, niin voit zoomata sisään; viivalla varustettua vihreää pistettä, niin voit zoomata ulos tai vihreitä nuolia, niin pääset viereisille kartoille.


METAR-TAF: